Time;durP1;ratioP1;P1;durP2;ratioP2;P2;SDS_P1;SDS_P2;PMS_P1;PMS_P2;Temp;Humidity;BMP_temperature;BMP_pressure;BME280_temperature;BME280_humidity;BME280_pressure;Samples;Min_cycle;Max_cycle;Signal;HPM_P1;HPM_P2
2022/06/05 00:00:30;;;;;;;;;20.33;18.67;;;;;20.80;62.34;101151.28;5055811;28;45498;-69
2022/06/05 00:03:02;;;;;;;;;18.67;16.67;;;;;20.80;62.82;101161.25;5064182;28;46947;-70
2022/06/05 00:05:40;;;;;;;;;18.33;16.33;;;;;20.81;62.46;101162.97;5039439;28;45587;-70
2022/06/05 00:08:58;;;;;;;;;18.00;18.00;;;;;20.81;62.68;101163.81;5043805;28;45359;-71
2022/06/05 00:11:24;;;;;;;;;13.67;12.33;;;;;20.81;62.37;101184.59;5034197;28;45387;-70
2022/06/05 00:13:55;;;;;;;;;12.00;12.00;;;;;20.81;62.23;101182.72;5039525;28;45930;-69
2022/06/05 00:16:27;;;;;;;;;14.33;13.00;;;;;20.81;62.44;101165.66;5045383;28;45534;-70
2022/06/05 00:18:53;;;;;;;;;14.33;12.33;;;;;20.81;62.08;101163.81;5040281;28;45395;-68
2022/06/05 00:21:18;;;;;;;;;15.67;13.67;;;;;20.82;62.41;101149.31;5039888;28;45298;-69
2022/06/05 00:23:44;;;;;;;;;16.67;13.33;;;;;20.85;62.23;101152.75;5035572;28;45478;-70
2022/06/05 00:26:15;;;;;;;;;14.00;12.67;;;;;20.86;62.26;101149.91;5041506;28;45316;-70
2022/06/05 00:29:00;;;;;;;;;18.33;13.00;;;;;20.85;62.33;101152.75;5040418;28;45531;-69
2022/06/05 00:31:31;;;;;;;;;10.67;10.67;;;;;20.82;62.45;101165.53;5041218;28;45521;-69
2022/06/05 00:33:57;;;;;;;;;13.67;12.67;;;;;20.80;62.39;101153.97;5037663;28;45376;-69
2022/06/05 00:37:20;;;;;;;;;10.00;10.00;;;;;20.81;62.07;101150.28;5032327;28;45232;-69
2022/06/05 00:40:10;;;;;;;;;9.00;9.00;;;;;20.80;61.93;101145.88;5050128;28;45490;-70
2022/06/05 00:42:36;;;;;;;;;9.33;8.67;;;;;20.81;62.37;101131.38;5042915;28;45505;-69
2022/06/05 00:45:07;;;;;;;;;10.33;9.00;;;;;20.82;62.54;101129.53;5044249;28;70284;-70
2022/06/05 00:47:33;;;;;;;;;9.00;8.33;;;;;20.81;62.27;101122.41;5039443;28;45354;-69
2022/06/05 00:50:19;;;;;;;;;11.00;9.00;;;;;20.80;61.91;101110.72;5034076;28;45632;-69
2022/06/05 00:52:48;;;;;;;;;12.00;11.00;;;;;20.81;62.20;101100.78;5035443;28;45217;-70
2022/06/05 00:55:14;;;;;;;;;11.00;11.00;;;;;20.75;62.29;101110.28;5041964;28;45611;-70
2022/06/05 00:57:39;;;;;;;;;10.33;8.33;;;;;20.71;62.19;101113.41;5050473;28;45358;-69
2022/06/05 01:00:15;;;;;;;;;13.33;12.00;;;;;20.71;62.26;101113.41;5038158;28;45473;-69
2022/06/05 01:02:42;;;;;;;;;8.00;7.67;;;;;20.71;62.70;101114.25;5038367;28;45281;-69
2022/06/05 01:05:09;;;;;;;;;12.33;12.33;;;;;20.69;62.56;101127.03;5049915;28;45411;-69
2022/06/05 01:07:35;;;;;;;;;14.33;12.00;;;;;20.65;63.05;101121.03;5064835;28;45814;-69
2022/06/05 01:10:00;;;;;;;;;15.00;10.33;;;;;20.66;62.81;101117.34;5061018;28;45466;-70
2022/06/05 01:12:30;;;;;;;;;14.00;12.00;;;;;20.69;63.35;101118.03;5056333;28;45457;-69
2022/06/05 01:15:06;;;;;;;;;10.00;9.00;;;;;20.70;63.24;101112.53;5039943;28;46499;-70
2022/06/05 01:17:47;;;;;;;;;16.33;13.00;;;;;20.70;63.24;101109.81;5044157;28;45417;-70
2022/06/05 01:20:17;;;;;;;;;9.00;9.00;;;;;20.69;63.15;101101.81;5055408;28;45336;-69
2022/06/05 01:23:15;;;;;;;;;13.00;11.67;;;;;20.67;63.83;101085.75;5058086;28;45328;-70
2022/06/05 01:25:54;;;;;;;;;11.67;10.33;;;;;20.67;63.37;101070.38;5033479;28;45999;-70
2022/06/05 01:28:22;;;;;;;;;11.33;10.33;;;;;20.66;63.71;101057.88;5062436;28;45263;-70
2022/06/05 01:31:00;;;;;;;;;13.00;10.67;;;;;20.65;63.65;101058.88;5063620;28;45287;-70
2022/06/05 01:33:27;;;;;;;;;9.33;9.00;;;;;20.63;63.77;101052.75;5056588;28;45711;-69
2022/06/05 01:36:02;;;;;;;;;11.00;11.00;;;;;20.61;63.35;101056.56;5064040;28;45408;-70
2022/06/05 01:38:47;;;;;;;;;9.67;9.67;;;;;20.57;63.82;101058.72;5040899;28;45537;-70
2022/06/05 01:41:29;;;;;;;;;10.00;10.00;;;;;20.55;63.70;101055.28;5048673;28;45464;-70
2022/06/05 01:43:58;;;;;;;;;11.00;10.00;;;;;20.52;63.80;101044.75;5068861;27;45523;-70
2022/06/05 01:46:33;;;;;;;;;10.33;9.33;;;;;20.50;63.53;101034.06;5041480;28;45457;-70
2022/06/05 01:49:09;;;;;;;;;9.67;9.67;;;;;20.51;64.11;101034.94;5057689;28;45490;-70
2022/06/05 01:51:59;;;;;;;;;11.33;9.67;;;;;20.48;64.07;101029.78;5045937;28;45383;-70
2022/06/05 01:54:35;;;;;;;;;13.00;11.33;;;;;20.46;63.57;101029.06;5061562;27;45421;-70
2022/06/05 01:57:04;;;;;;;;;12.00;11.00;;;;;20.45;63.74;101019.25;5064126;28;46320;-71
2022/06/05 01:59:42;;;;;;;;;11.33;9.67;;;;;20.45;63.99;101019.25;5040403;28;45704;-70
2022/06/05 02:02:11;;;;;;;;;10.00;8.67;;;;;20.42;64.25;101017.69;5053799;28;45634;-70
2022/06/05 02:04:48;;;;;;;;;9.33;9.33;;;;;20.33;63.65;101019.34;5044587;28;45587;-70
2022/06/05 02:07:26;;;;;;;;;12.33;9.33;;;;;20.35;63.63;101013.81;5046007;28;46276;-69
2022/06/05 02:10:03;;;;;;;;;12.00;9.33;;;;;20.37;64.15;101008.28;5054056;28;45478;-70
2022/06/05 02:12:29;;;;;;;;;8.33;8.33;;;;;20.33;64.15;100986.94;5058606;28;45296;-70
2022/06/05 02:14:55;;;;;;;;;10.67;9.33;;;;;20.29;63.69;100990.06;5058072;28;45213;-69
2022/06/05 02:17:20;;;;;;;;;7.33;7.33;;;;;20.28;64.10;100981.06;5063384;28;72607;-70
2022/06/05 02:19:46;;;;;;;;;8.00;8.00;;;;;20.30;63.64;100991.78;5057727;28;45385;-71
2022/06/05 02:22:21;;;;;;;;;11.00;9.33;;;;;20.29;64.08;100999.00;5057047;28;63917;-70
2022/06/05 02:24:47;;;;;;;;;10.00;10.00;;;;;20.28;63.82;100991.03;5066026;28;45374;-71
2022/06/05 02:27:12;;;;;;;;;9.67;9.67;;;;;20.21;63.52;100981.75;5059128;28;52846;-70
2022/06/05 02:29:38;;;;;;;;;10.67;10.67;;;;;20.17;63.66;100983.88;5060864;28;45434;-70
2022/06/05 02:32:17;;;;;;;;;10.33;10.33;;;;;20.14;63.53;100982.31;5057929;28;45713;-70
2022/06/05 02:34:54;;;;;;;;;12.33;9.67;;;;;20.12;63.99;100986.97;5059247;28;45423;-70
2022/06/05 02:37:39;;;;;;;;;9.33;9.33;;;;;20.13;63.80;100985.16;5063706;28;46276;-71
2022/06/05 02:40:04;;;;;;;;;11.33;11.33;;;;;20.12;63.63;100978.03;5044361;28;45308;-71
2022/06/05 02:42:34;;;;;;;;;9.00;9.00;;;;;20.11;63.68;100976.31;5052185;28;45258;-70
2022/06/05 02:45:22;;;;;;;;;8.33;8.33;;;;;20.11;63.67;100981.72;5060050;28;45377;-70
2022/06/05 02:47:59;;;;;;;;;9.00;9.00;;;;;20.09;64.11;100972.88;5053702;28;46185;-70
2022/06/05 02:50:36;;;;;;;;;11.67;9.33;;;;;20.04;64.16;100959.81;5064367;28;45491;-71
2022/06/05 02:53:05;;;;;;;;;10.67;9.33;;;;;20.00;64.04;100966.47;5059588;28;45348;-71
2022/06/05 02:55:31;;;;;;;;;8.67;7.67;;;;;19.98;63.99;100974.69;5066971;28;45244;-70
2022/06/05 02:57:57;;;;;;;;;12.33;10.00;;;;;19.96;64.09;100967.75;5045668;28;45271;-70
2022/06/05 03:00:25;;;;;;;;;8.00;7.33;;;;;19.94;64.26;100967.84;5063423;28;45470;-70
2022/06/05 03:05:35;;;;;;;;;8.00;8.00;;;;;19.88;64.15;100976.50;5063708;28;45402;-71
2022/06/05 03:08:01;;;;;;;;;8.00;8.00;;;;;19.87;64.49;100979.31;5060452;28;46249;-71
2022/06/05 03:10:26;;;;;;;;;10.00;8.00;;;;;19.82;64.18;100975.16;5061169;28;67852;-70
2022/06/05 03:12:52;;;;;;;;;8.33;7.33;;;;;19.79;64.19;100978.09;5060583;28;45439;-71
2022/06/05 03:15:17;;;;;;;;;8.67;8.67;;;;;19.76;64.09;100967.56;5061989;28;63012;-70
2022/06/05 03:17:43;;;;;;;;;9.33;6.33;;;;;19.74;64.19;100969.56;5061216;28;46128;-71
2022/06/05 03:20:10;;;;;;;;;7.67;7.67;;;;;19.70;64.49;100967.25;5059695;28;45352;-70
2022/06/05 03:22:35;;;;;;;;;10.00;8.00;;;;;19.67;64.59;100969.22;5061822;28;45421;-69
2022/06/05 03:25:01;;;;;;;;;7.00;7.00;;;;;19.66;64.66;100972.91;5066316;28;45541;-71
2022/06/05 03:27:27;;;;;;;;;8.00;7.00;;;;;19.61;64.79;100972.44;5061106;28;46172;-70
2022/06/05 03:29:52;;;;;;;;;8.00;8.00;;;;;19.58;65.00;100972.72;5064742;28;45429;-70
2022/06/05 03:32:17;;;;;;;;;8.00;7.33;;;;;19.55;65.02;100978.34;5058368;28;65973;-70
2022/06/05 03:34:43;;;;;;;;;8.67;8.67;;;;;19.57;64.74;100981.81;5059960;28;49267;-70
2022/06/05 03:37:08;;;;;;;;;7.67;7.67;;;;;19.58;64.77;100977.25;5062391;28;67471;-71
2022/06/05 03:39:34;;;;;;;;;8.00;8.00;;;;;19.57;65.42;100994.41;5059566;28;45602;-70
2022/06/05 03:41:59;;;;;;;;;8.67;7.33;;;;;19.50;64.95;100994.97;5068023;28;45498;-71
2022/06/05 03:44:26;;;;;;;;;7.67;7.33;;;;;19.51;65.39;100988.56;5064059;28;54024;-69
2022/06/05 03:46:51;;;;;;;;;10.00;8.00;;;;;19.52;65.18;100994.81;5062034;28;46196;-71
2022/06/05 03:49:16;;;;;;;;;7.67;7.67;;;;;19.51;65.48;100998.50;5063441;28;45419;-70
2022/06/05 03:51:44;;;;;;;;;7.33;7.33;;;;;19.49;65.53;100997.78;5061122;28;45414;-71
2022/06/05 03:54:10;;;;;;;;;7.00;6.33;;;;;19.49;65.04;101000.50;5058771;28;45483;-70
2022/06/05 03:56:35;;;;;;;;;11.00;10.00;;;;;19.48;65.07;100998.78;5063419;28;68886;-71
2022/06/05 03:59:00;;;;;;;;;10.33;9.00;;;;;19.45;65.33;100999.88;5060585;28;45288;-70
2022/06/05 04:01:27;;;;;;;;;9.00;7.00;;;;;19.42;65.36;101002.81;5054963;28;45371;-71
2022/06/05 04:03:53;;;;;;;;;8.67;7.33;;;;;19.39;65.51;101010.34;5065864;28;45474;-71
2022/06/05 04:06:21;;;;;;;;;7.33;7.33;;;;;19.39;65.77;101019.28;5044049;28;46401;-71
2022/06/05 04:08:48;;;;;;;;;5.00;4.33;;;;;19.40;65.46;101022.81;5066618;28;45731;-71
2022/06/05 04:11:16;;;;;;;;;10.67;9.00;;;;;19.40;65.65;101026.38;5065349;28;45394;-71
2022/06/05 04:13:42;;;;;;;;;9.00;9.00;;;;;19.39;65.45;101030.06;5059227;28;45518;-71
2022/06/05 04:16:16;;;;;;;;;7.33;7.33;;;;;19.42;65.49;101031.66;5065297;28;46306;-71
2022/06/05 04:18:41;;;;;;;;;10.00;8.00;;;;;19.45;65.55;101034.06;5063957;28;45402;-71
2022/06/05 04:21:12;;;;;;;;;6.33;6.33;;;;;19.50;65.41;101037.25;5055943;28;45794;-72
2022/06/05 04:23:37;;;;;;;;;7.00;6.00;;;;;19.54;65.51;101032.44;5058482;28;45667;-71
2022/06/05 04:26:09;;;;;;;;;7.67;7.67;;;;;19.56;65.17;101035.88;5056566;28;64645;-71
2022/06/05 04:28:35;;;;;;;;;7.67;7.67;;;;;19.56;65.29;101033.19;5059364;28;45297;-71
2022/06/05 04:31:00;;;;;;;;;9.00;8.00;;;;;19.58;65.26;101040.16;5059429;28;45459;-72
2022/06/05 04:33:25;;;;;;;;;9.00;8.00;;;;;19.60;65.22;101040.88;5063537;28;64396;-71
2022/06/05 04:35:51;;;;;;;;;9.00;8.00;;;;;19.62;65.27;101043.44;5059356;28;69170;-73
2022/06/05 04:38:16;;;;;;;;;7.67;6.67;;;;;19.64;65.20;101047.72;5061054;28;67786;-72
2022/06/05 04:40:41;;;;;;;;;10.00;8.33;;;;;19.65;65.24;101049.44;5068738;28;45454;-73
2022/06/05 04:43:08;;;;;;;;;9.67;8.00;;;;;19.65;65.15;101052.13;5062239;28;60851;-72
2022/06/05 04:45:33;;;;;;;;;12.33;11.00;;;;;19.64;65.21;101055.81;5062315;28;46304;-73
2022/06/05 04:47:59;;;;;;;;;9.33;8.67;;;;;19.63;65.05;101064.91;5062532;28;45567;-71
2022/06/05 04:50:24;;;;;;;;;10.33;10.33;;;;;19.67;65.30;101070.88;5058837;28;67135;-71
2022/06/05 04:52:50;;;;;;;;;10.00;10.00;;;;;19.71;65.11;101075.06;5060706;28;58329;-72
2022/06/05 04:55:15;;;;;;;;;9.00;9.00;;;;;19.74;65.12;101072.09;5058107;28;73986;-71
2022/06/05 04:57:43;;;;;;;;;9.00;9.00;;;;;19.79;64.88;101074.38;5055586;28;45406;-72
2022/06/05 05:00:09;;;;;;;;;8.33;8.00;;;;;19.82;65.13;101079.56;5053533;28;45291;-69
2022/06/05 05:02:34;;;;;;;;;8.33;7.00;;;;;19.84;64.90;101072.19;5070517;28;45455;-72
2022/06/05 05:04:59;;;;;;;;;10.00;8.00;;;;;19.85;64.75;101083.84;5058662;28;45465;-70
2022/06/05 05:07:25;;;;;;;;;10.00;9.00;;;;;19.81;65.10;101080.53;5058787;28;51363;-70
2022/06/05 05:09:50;;;;;;;;;9.00;7.00;;;;;19.83;64.97;101076.75;5060643;28;59950;-71
2022/06/05 05:12:16;;;;;;;;;9.00;6.67;;;;;19.87;64.83;101077.34;5061550;28;66721;-69
2022/06/05 05:14:41;;;;;;;;;10.00;8.00;;;;;19.92;65.01;101076.94;5061651;28;45941;-72
2022/06/05 05:17:07;;;;;;;;;10.33;9.00;;;;;19.96;64.87;101071.16;5057707;28;65491;-71
2022/06/05 05:19:32;;;;;;;;;8.67;8.33;;;;;20.00;64.85;101071.75;5055575;28;45437;-71
2022/06/05 05:21:58;;;;;;;;;8.33;8.33;;;;;20.05;64.59;101074.91;5058461;28;45449;-70
2022/06/05 05:24:23;;;;;;;;;11.00;8.00;;;;;20.06;64.53;101068.50;5048631;28;72663;-72
2022/06/05 05:26:49;;;;;;;;;8.00;8.00;;;;;20.11;64.50;101070.81;5049864;28;45549;-71
2022/06/05 05:29:14;;;;;;;;;9.33;7.67;;;;;20.13;64.67;101068.84;5059639;28;45823;-69
2022/06/05 05:31:41;;;;;;;;;11.67;9.67;;;;;20.18;64.19;101080.13;5054173;28;69135;-70
2022/06/05 05:34:08;;;;;;;;;9.00;8.00;;;;;20.20;64.59;101074.56;5059984;28;45928;-71
2022/06/05 05:36:34;;;;;;;;;10.00;9.33;;;;;20.23;64.61;101087.81;5062888;28;45249;-70
2022/06/05 05:44:30;;;;;;;;;8.00;8.00;;;;;20.18;64.21;101085.53;5060097;28;45172;-69
2022/06/05 05:46:56;;;;;;;;;8.00;8.00;;;;;20.24;64.60;101078.72;5064848;28;45667;-69
2022/06/05 05:49:21;;;;;;;;;9.33;8.00;;;;;20.28;64.59;101082.88;5063786;28;45320;-71
2022/06/05 05:51:46;;;;;;;;;11.00;9.00;;;;;20.34;64.08;101085.03;5054011;28;45344;-70
2022/06/05 05:54:12;;;;;;;;;12.00;10.67;;;;;20.39;64.31;101076.50;5058458;28;46143;-70
2022/06/05 05:56:38;;;;;;;;;12.67;9.33;;;;;20.44;64.02;101076.97;5056634;28;45399;-71
2022/06/05 05:59:04;;;;;;;;;9.67;9.00;;;;;20.45;64.07;101084.09;5053792;28;45247;-70
2022/06/05 06:01:29;;;;;;;;;9.33;9.00;;;;;20.43;63.50;101086.94;5055853;28;45428;-70
2022/06/05 06:03:55;;;;;;;;;9.00;8.67;;;;;20.41;63.45;101080.78;5057347;28;45459;-71
2022/06/05 06:06:29;;;;;;;;;7.33;7.33;;;;;20.46;64.06;101077.69;5057391;28;45446;-69
2022/06/05 06:08:54;;;;;;;;;10.67;9.00;;;;;20.53;63.45;101076.16;5058620;28;45309;-70
2022/06/05 06:11:19;;;;;;;;;10.00;9.00;;;;;20.59;63.48;101081.03;5057596;28;45469;-71
2022/06/05 06:13:45;;;;;;;;;9.00;9.00;;;;;20.63;63.88;101079.75;5056560;28;45499;-70
2022/06/05 06:16:10;;;;;;;;;11.67;8.00;;;;;20.67;63.44;101086.59;5059805;28;45512;-70
2022/06/05 06:18:37;;;;;;;;;9.00;9.00;;;;;20.71;62.99;101080.97;5052088;28;45522;-70
2022/06/05 06:21:02;;;;;;;;;10.33;9.33;;;;;20.65;62.88;101071.53;5054104;28;45383;-70
2022/06/05 06:23:27;;;;;;;;;10.67;8.33;;;;;20.65;63.43;101072.38;5058234;28;45936;-71
2022/06/05 06:25:53;;;;;;;;;10.00;9.00;;;;;20.72;63.34;101063.78;5063780;28;70575;-71
2022/06/05 06:28:18;;;;;;;;;8.00;7.33;;;;;20.81;63.14;101065.66;5060261;28;63759;-71
2022/06/05 06:30:44;;;;;;;;;9.67;9.67;;;;;20.88;63.28;101061.38;5058146;28;45311;-71
2022/06/05 06:33:10;;;;;;;;;8.00;7.67;;;;;20.94;62.97;101058.13;5064294;28;46122;-71
2022/06/05 06:35:36;;;;;;;;;9.00;7.33;;;;;20.98;63.00;101059.56;5072206;28;68506;-62
2022/06/05 06:38:02;;;;;;;;;8.67;6.67;;;;;21.04;62.55;101060.00;5062095;28;45426;-62
2022/06/05 06:40:27;;;;;;;;;10.00;8.67;;;;;21.08;62.57;101061.44;5061126;28;45586;-62
2022/06/05 06:42:56;;;;;;;;;8.67;8.67;;;;;21.11;62.46;101058.47;5056694;28;70381;-62
2022/06/05 06:45:22;;;;;;;;;8.00;8.00;;;;;21.15;62.27;101057.19;5062641;28;45482;-62
2022/06/05 06:47:48;;;;;;;;;9.33;7.33;;;;;21.19;62.22;101052.38;5067804;28;45300;-63
2022/06/05 06:50:14;;;;;;;;;9.00;8.33;;;;;21.20;61.94;101052.22;5061153;28;45614;-61
2022/06/05 06:52:39;;;;;;;;;10.00;9.33;;;;;21.24;62.01;101056.34;5060801;28;47086;-62
2022/06/05 06:55:07;;;;;;;;;9.67;7.33;;;;;21.25;62.36;101052.66;5061539;28;63685;-56
2022/06/05 06:57:32;;;;;;;;;5.67;5.67;;;;;21.30;62.48;101054.91;5061379;28;45482;-56
2022/06/05 06:59:57;;;;;;;;;10.00;9.00;;;;;21.36;62.56;101048.97;5056867;28;45371;-58
2022/06/05 07:02:23;;;;;;;;;8.00;8.00;;;;;21.41;62.60;101051.25;5059606;28;73069;-58
2022/06/05 07:04:48;;;;;;;;;8.67;7.67;;;;;21.44;61.93;101045.53;5068355;28;64472;-54
2022/06/05 07:07:13;;;;;;;;;12.33;11.00;;;;;21.48;62.03;101039.72;5056234;28;45378;-56
2022/06/05 07:09:39;;;;;;;;;6.67;6.67;;;;;21.52;61.97;101042.13;5062675;28;45556;-55
2022/06/05 07:12:05;;;;;;;;;8.33;8.33;;;;;21.56;61.94;101032.75;5059788;28;64785;-49
2022/06/05 07:14:31;;;;;;;;;14.00;10.00;;;;;21.59;61.47;101037.88;5055588;28;45422;-54
2022/06/05 07:16:56;;;;;;;;;13.00;10.00;;;;;21.60;61.93;101037.75;5063926;28;53062;-54
2022/06/05 07:19:21;;;;;;;;;7.33;7.00;;;;;21.64;61.53;101041.88;5053636;28;45548;-54
2022/06/05 07:21:47;;;;;;;;;12.00;12.00;;;;;21.71;61.09;101039.44;5053237;28;71315;-56
2022/06/05 07:24:12;;;;;;;;;11.00;10.00;;;;;21.73;60.74;101033.88;5053368;28;48863;-54
2022/06/05 07:26:38;;;;;;;;;13.00;13.00;;;;;21.71;61.33;101030.50;5059712;28;45328;-54
2022/06/05 07:29:04;;;;;;;;;4.00;4.00;;;;;21.72;61.15;101032.16;5052914;28;61461;-55
2022/06/05 07:31:31;;;;;;;;;7.00;7.00;;;;;21.82;60.66;101030.31;5058280;28;47029;-54
2022/06/05 07:33:57;;;;;;;;;9.67;8.33;;;;;22.12;60.73;101026.56;5059660;28;45375;-55
2022/06/05 07:36:25;;;;;;;;;11.33;10.00;;;;;22.53;59.94;101030.84;5063645;28;45503;-56
2022/06/05 07:38:50;;;;;;;;;9.00;9.00;;;;;23.06;59.50;101037.41;5040737;28;45267;-55
2022/06/05 07:41:19;;;;;;;;;11.00;9.00;;;;;23.59;57.87;101043.91;5059748;28;72292;-55
2022/06/05 07:43:45;;;;;;;;;7.67;7.67;;;;;24.06;55.45;101040.91;5058511;28;45547;-57
2022/06/05 07:46:12;;;;;;;;;11.00;11.00;;;;;24.43;55.06;101034.34;5061163;28;45684;-55
2022/06/05 07:48:38;;;;;;;;;5.00;3.25;;;;;24.68;54.92;101025.44;5060175;28;45657;-56
2022/06/05 07:56:37;;;;;;;;;5.25;5.25;;;;;26.40;52.93;101018.44;5059333;28;45481;-57
2022/06/05 07:59:03;;;;;;;;;6.75;6.75;;;;;26.64;52.22;101013.91;5060637;28;45496;-57
2022/06/05 08:01:28;;;;;;;;;4.50;4.50;;;;;26.53;51.20;101028.75;5059542;28;46152;-51
2022/06/05 08:03:53;;;;;;;;;5.00;5.00;;;;;26.29;50.46;101037.88;5053420;28;45329;-57
2022/06/05 08:06:19;;;;;;;;;5.00;4.50;;;;;26.01;51.28;101047.28;5064966;28;65388;-56
2022/06/05 08:08:44;;;;;;;;;4.25;4.25;;;;;25.72;51.67;101040.50;5056095;28;47994;-56
2022/06/05 08:11:10;;;;;;;;;7.25;5.50;;;;;25.49;51.78;101042.16;5060690;28;45166;-56
2022/06/05 08:13:35;;;;;;;;;4.75;4.75;;;;;25.25;51.67;101043.81;5056680;28;45317;-50
2022/06/05 08:16:00;;;;;;;;;7.00;7.00;;;;;24.94;53.12;101036.28;5062080;28;45310;-49
2022/06/05 08:18:26;;;;;;;;;5.75;5.75;;;;;24.76;53.38;101050.81;5057626;28;67932;-51
2022/06/05 08:20:51;;;;;;;;;7.75;7.75;;;;;24.63;53.52;101050.44;5059518;28;45922;-52
2022/06/05 08:23:17;;;;;;;;;5.50;5.00;;;;;24.45;53.26;101053.19;5064445;28;45390;-49
2022/06/05 08:25:43;;;;;;;;;4.00;4.00;;;;;24.29;53.96;101053.97;5058778;28;59089;-52
2022/06/05 08:28:09;;;;;;;;;4.00;4.00;;;;;24.13;54.10;101060.13;5054489;28;45493;-49
2022/06/05 08:30:35;;;;;;;;;4.00;4.00;;;;;24.04;54.21;101067.38;5055368;28;46146;-52
2022/06/05 08:33:01;;;;;;;;;3.75;3.25;;;;;23.97;54.54;101057.31;5056423;28;45267;-48
2022/06/05 08:35:26;;;;;;;;;4.00;3.67;;;;;23.91;54.71;101061.50;5058180;28;45383;-48
2022/06/05 08:43:49;;;;;;;;;10.50;6.00;;;;;23.74;55.10;101068.63;5053599;28;45221;-47
2022/06/05 08:46:25;;;;;;;;;5.00;5.00;;;;;23.69;55.00;101079.09;5056517;28;45315;-47
2022/06/05 08:49:01;;;;;;;;;4.00;3.25;;;;;23.58;55.53;101085.63;5054734;28;45604;-48
2022/06/05 08:51:30;;;;;;;;;4.25;4.25;;;;;23.54;55.68;101084.25;5042919;28;47507;-47
2022/06/05 08:53:58;;;;;;;;;6.50;4.50;;;;;23.47;55.73;101084.00;5059178;28;45449;-47
2022/06/05 08:56:37;;;;;;;;;5.00;5.00;;;;;23.35;55.89;101085.22;5060964;28;45430;-47
2022/06/05 08:59:13;;;;;;;;;5.00;5.00;;;;;23.21;55.94;101092.88;5051630;28;45249;-49
2022/06/05 09:02:02;;;;;;;;;5.25;4.50;;;;;23.10;56.51;101087.63;5072724;27;46410;-49
2022/06/05 09:04:39;;;;;;;;;4.00;4.00;;;;;23.04;56.70;101078.25;5041284;28;45751;-48
2022/06/05 09:07:08;;;;;;;;;5.00;5.00;;;;;23.00;57.11;101075.97;5055814;28;45662;-48
2022/06/05 09:09:44;;;;;;;;;4.67;4.33;;;;;22.96;57.49;101068.16;5040272;28;45581;-51
2022/06/05 09:12:40;;;;;;;;;5.25;5.00;;;;;22.98;57.58;101064.44;5040710;28;46353;-48
2022/06/05 09:15:24;;;;;;;;;6.00;6.00;;;;;22.99;57.41;101068.88;5075322;27;45345;-50
2022/06/05 09:17:59;;;;;;;;;5.33;4.67;;;;;23.04;57.32;101088.25;5047579;28;45608;-50
2022/06/05 09:20:51;;;;;;;;;6.00;6.00;;;;;23.04;57.40;101090.97;5054598;28;45173;-50
2022/06/05 09:23:34;;;;;;;;;4.00;4.00;;;;;23.02;57.74;101098.41;5058202;28;47112;-49
2022/06/05 09:26:16;;;;;;;;;6.67;6.67;;;;;22.97;57.86;101098.84;5057974;28;45360;-49
2022/06/05 09:28:56;;;;;;;;;5.33;5.33;;;;;22.97;57.56;101098.84;5058205;28;45506;-47
2022/06/05 09:32:09;;;;;;;;;7.33;5.33;;;;;22.98;58.10;101097.00;5070159;28;45316;-47
2022/06/05 09:34:43;;;;;;;;;6.33;5.33;;;;;22.96;57.51;101105.28;5032582;28;46135;-49
2022/06/05 09:37:18;;;;;;;;;5.00;5.00;;;;;22.95;57.61;101112.56;5054535;28;45437;-47
2022/06/05 09:39:56;;;;;;;;;5.00;5.00;;;;;22.94;57.71;101119.00;5056896;28;45370;-47
2022/06/05 09:42:56;;;;;;;;;6.33;5.33;;;;;22.93;57.60;101132.69;5051882;28;45312;-50
2022/06/05 09:45:44;;;;;;;;;6.67;5.33;;;;;22.81;57.55;101129.31;5041827;28;46283;-46
2022/06/05 09:48:19;;;;;;;;;6.00;6.00;;;;;22.74;58.04;101147.19;5039056;28;45327;-51
2022/06/05 09:50:44;;;;;;;;;4.75;4.75;;;;;22.68;57.72;101140.50;5060825;28;45743;-51
2022/06/05 09:53:24;;;;;;;;;7.00;7.00;;;;;22.65;57.88;101151.63;5066156;28;45546;-48
2022/06/05 09:56:02;;;;;;;;;6.33;6.00;;;;;22.64;58.02;101144.50;5040353;28;46423;-49
2022/06/05 09:58:46;;;;;;;;;7.33;7.33;;;;;22.65;57.83;101142.66;5042634;28;45395;-54
2022/06/05 10:01:23;;;;;;;;;8.00;7.00;;;;;22.65;58.00;101142.66;5071606;28;45516;-57
2022/06/05 10:03:49;;;;;;;;;9.33;7.33;;;;;22.67;57.81;101155.06;5061654;28;45542;-57
2022/06/05 10:06:38;;;;;;;;;7.00;7.00;;;;;22.70;57.92;101148.50;5060098;28;45442;-48
2022/06/05 10:09:07;;;;;;;;;11.00;8.33;;;;;22.70;57.57;101159.34;5040216;28;45323;-44
2022/06/05 10:12:20;;;;;;;;;9.33;9.00;;;;;22.61;57.38;101172.75;5071186;28;45623;-45
2022/06/05 10:14:52;;;;;;;;;10.67;10.00;;;;;22.55;58.17;101167.06;5052605;28;45951;-46
2022/06/05 10:17:31;;;;;;;;;14.67;13.00;;;;;22.50;57.64;101172.06;5061683;28;46819;-46
2022/06/05 10:20:36;;;;;;;;;9.67;9.67;;;;;22.42;57.54;101175.50;5062101;28;45390;-56
2022/06/05 10:23:21;;;;;;;;;11.00;11.00;;;;;22.37;57.92;101184.09;5067726;28;45414;-54
2022/06/05 10:25:57;;;;;;;;;9.00;9.00;;;;;22.38;58.28;101182.22;5073645;28;45300;-53
2022/06/05 10:28:31;;;;;;;;;9.00;9.00;;;;;22.38;57.84;101185.78;5052279;28;45615;-50
2022/06/05 10:31:00;;;;;;;;;11.33;10.67;;;;;22.38;57.46;101190.34;5057131;28;45692;-49
2022/06/05 10:33:58;;;;;;;;;13.00;10.00;;;;;22.37;57.54;101194.06;5043830;28;45288;-50
2022/06/05 10:36:55;;;;;;;;;11.67;10.67;;;;;22.31;57.83;101188.19;5021776;28;45404;-48
2022/06/05 10:39:36;;;;;;;;;9.00;9.00;;;;;22.24;57.65;101194.31;5058037;28;46935;-49
2022/06/05 10:42:16;;;;;;;;;8.33;7.00;;;;;22.18;57.69;101182.22;5061984;28;45510;-53
2022/06/05 10:45:12;;;;;;;;;10.33;10.33;;;;;22.26;57.91;101181.50;5042586;28;45368;-52
2022/06/05 10:47:55;;;;;;;;;10.00;9.33;;;;;22.45;57.25;101184.22;5060465;28;45900;-49
2022/06/05 10:50:30;;;;;;;;;11.33;11.33;;;;;22.60;57.18;101183.75;5067144;28;46380;-50
2022/06/05 10:53:05;;;;;;;;;11.67;10.33;;;;;22.69;56.52;101185.59;5034187;28;45543;-51
2022/06/05 10:55:58;;;;;;;;;14.00;12.00;;;;;22.71;56.93;101177.28;5045551;28;45505;-49
2022/06/05 10:58:32;;;;;;;;;11.00;10.00;;;;;22.77;56.73;101190.28;5057337;28;45343;-51
2022/06/05 11:01:12;;;;;;;;;11.00;11.00;;;;;22.80;56.28;101189.97;5072891;27;46374;-46
2022/06/05 11:03:57;;;;;;;;;12.67;11.67;;;;;22.80;56.15;101184.53;5060275;28;45402;-47
2022/06/05 11:06:31;;;;;;;;;13.00;11.00;;;;;22.84;56.35;101185.97;5042986;28;45393;-47
2022/06/05 11:09:25;;;;;;;;;14.33;11.00;;;;;22.86;56.04;101174.97;5058900;28;45245;-46
2022/06/05 11:15:03;;;;;;;;;12.00;11.67;;;;;22.70;56.51;101181.03;5063133;28;45308;-47
2022/06/05 11:17:35;;;;;;;;;12.00;8.67;;;;;22.69;56.38;101187.44;5031129;28;45487;-49
2022/06/05 11:20:03;;;;;;;;;13.67;12.00;;;;;22.63;56.37;101195.16;5070316;28;45397;-47
2022/06/05 11:22:29;;;;;;;;;12.00;12.00;;;;;22.57;56.36;101192.19;5045580;28;46529;-46
2022/06/05 11:25:11;;;;;;;;;13.67;9.67;;;;;22.49;56.93;101195.63;5058340;28;45455;-46
2022/06/05 11:27:52;;;;;;;;;14.33;12.33;;;;;22.46;57.11;101190.47;5045023;28;45493;-49
2022/06/05 11:30:30;;;;;;;;;13.33;13.33;;;;;22.50;57.05;101196.47;5044093;28;45434;-45
2022/06/05 11:33:04;;;;;;;;;9.33;9.33;;;;;22.55;56.89;101205.00;5038926;28;48173;-47
2022/06/05 11:36:02;;;;;;;;;14.00;14.00;;;;;22.50;56.78;101202.72;5072259;28;45386;-47
2022/06/05 11:38:45;;;;;;;;;14.67;12.00;;;;;22.43;57.08;101196.19;5017642;28;45370;-46
2022/06/05 11:41:25;;;;;;;;;13.00;11.67;;;;;22.48;57.05;101195.78;5042450;28;45376;-47
2022/06/05 11:44:14;;;;;;;;;14.33;11.67;;;;;22.54;56.78;101206.88;5057718;28;46140;-46
2022/06/05 11:47:00;;;;;;;;;12.67;12.33;;;;;22.48;56.76;101212.03;5067272;28;45445;-46
2022/06/05 11:49:49;;;;;;;;;15.00;14.00;;;;;22.38;56.91;101222.88;5054977;28;45383;-49
2022/06/05 11:52:36;;;;;;;;;15.67;12.67;;;;;22.30;56.81;101220.84;5049754;28;45487;-46
2022/06/05 11:55:10;;;;;;;;;14.00;11.67;;;;;22.18;57.00;101228.25;5057445;28;46965;-49
2022/06/05 11:58:01;;;;;;;;;9.00;9.00;;;;;22.04;57.85;101234.94;5061697;28;45502;-48
2022/06/05 12:00:36;;;;;;;;;14.00;12.33;;;;;21.94;58.12;101228.66;5052818;28;45398;-48
2022/06/05 12:03:07;;;;;;;;;14.33;14.33;;;;;21.81;58.26;101239.75;5059850;28;45638;-49